createdAt,value
2022-08-30T00:01:56.392Z,13.01
2022-08-30T00:04:22.869Z,12.79
2022-08-30T00:06:49.362Z,12.54
2022-08-30T00:09:15.806Z,12.38
2022-08-30T00:11:42.307Z,12.30
2022-08-30T00:14:08.935Z,12.32
2022-08-30T00:16:35.405Z,12.35
2022-08-30T00:19:02.377Z,12.35
2022-08-30T00:21:28.850Z,12.40
2022-08-30T00:23:55.365Z,12.44
2022-08-30T00:26:22.175Z,12.57
2022-08-30T00:28:48.607Z,12.66
2022-08-30T00:31:15.433Z,12.72
2022-08-30T00:33:42.146Z,12.84
2022-08-30T00:36:08.654Z,12.85
2022-08-30T00:38:35.072Z,12.81
2022-08-30T00:41:01.594Z,12.78
2022-08-30T00:43:30.283Z,12.82
2022-08-30T00:45:57.699Z,12.83
2022-08-30T00:48:24.177Z,12.85
2022-08-30T00:50:54.801Z,12.87
2022-08-30T00:53:23.819Z,12.96
2022-08-30T00:55:50.612Z,13.00
2022-08-30T00:58:21.342Z,13.01
2022-08-30T01:00:49.046Z,13.03
2022-08-30T01:03:15.648Z,13.06
2022-08-30T01:05:42.246Z,13.14
2022-08-30T01:08:08.685Z,13.15
2022-08-30T01:10:35.875Z,13.16
2022-08-30T01:13:02.747Z,13.20
2022-08-30T01:15:29.213Z,13.25
2022-08-30T01:17:56.423Z,13.32
2022-08-30T01:20:25.039Z,13.34
2022-08-30T01:22:51.452Z,13.37
2022-08-30T01:25:21.647Z,13.37
2022-08-30T01:27:50.835Z,13.37
2022-08-30T01:30:17.472Z,13.34
2022-08-30T01:32:45.366Z,13.29
2022-08-30T01:35:12.995Z,13.26
2022-08-30T01:37:39.522Z,13.16
2022-08-30T01:40:06.696Z,13.09
2022-08-30T01:42:33.216Z,13.02
2022-08-30T01:44:59.627Z,12.99
2022-08-30T01:47:26.131Z,12.95
2022-08-30T01:49:52.649Z,12.94
2022-08-30T01:52:19.247Z,12.88
2022-08-30T01:54:46.102Z,12.80
2022-08-30T01:57:13.855Z,12.83
2022-08-30T01:59:42.514Z,12.85
2022-08-30T02:02:09.175Z,12.82
2022-08-30T02:04:36.296Z,12.80
2022-08-30T02:07:03.737Z,12.76
2022-08-30T02:09:30.199Z,12.57
2022-08-30T02:11:56.781Z,12.46
2022-08-30T02:14:23.545Z,12.43
2022-08-30T02:16:50.053Z,12.44
2022-08-30T02:19:18.024Z,12.47
2022-08-30T02:21:44.754Z,12.51
2022-08-30T02:24:11.191Z,12.57
2022-08-30T02:26:37.679Z,12.57
2022-08-30T02:29:05.338Z,12.60
2022-08-30T02:31:32.022Z,12.65
2022-08-30T02:33:58.455Z,12.64
2022-08-30T02:36:25.193Z,12.63
2022-08-30T02:38:51.725Z,12.58
2022-08-30T02:41:18.611Z,12.52
2022-08-30T02:43:45.042Z,12.54
2022-08-30T02:46:11.662Z,12.54
2022-08-30T02:48:38.142Z,12.59
2022-08-30T02:51:10.553Z,12.62
2022-08-30T02:53:37.997Z,12.65
2022-08-30T02:56:04.463Z,12.74
2022-08-30T02:58:31.165Z,12.81
2022-08-30T03:00:57.697Z,12.89
2022-08-30T03:03:24.653Z,12.73
2022-08-30T03:05:51.154Z,12.63
2022-08-30T03:08:17.614Z,12.56
2022-08-30T03:10:44.027Z,12.59
2022-08-30T03:13:10.458Z,12.65
2022-08-30T03:15:37.655Z,12.65
2022-08-30T03:18:04.151Z,12.59
2022-08-30T03:20:30.618Z,12.59
2022-08-30T03:22:57.122Z,12.61
2022-08-30T03:25:23.583Z,12.62
2022-08-30T03:27:50.719Z,12.62
2022-08-30T03:30:17.828Z,12.59
2022-08-30T03:32:44.274Z,12.64
2022-08-30T03:35:11.313Z,12.65
2022-08-30T03:37:37.804Z,12.65
2022-08-30T03:40:05.207Z,12.64
2022-08-30T03:42:33.126Z,12.67
2022-08-30T03:45:02.252Z,12.74
2022-08-30T03:47:29.070Z,12.82
2022-08-30T03:49:55.891Z,12.85
2022-08-30T03:52:22.325Z,12.92
2022-08-30T03:54:48.749Z,13.01
2022-08-30T03:57:20.284Z,13.10
2022-08-30T03:59:50.836Z,13.18
2022-08-30T04:02:17.357Z,13.20
2022-08-30T04:04:43.820Z,13.22
2022-08-30T04:07:10.269Z,13.26
2022-08-30T04:09:36.693Z,13.30
2022-08-30T04:12:03.303Z,13.27
2022-08-30T04:14:29.765Z,13.24
2022-08-30T04:16:56.208Z,13.19
2022-08-30T04:19:22.631Z,13.13
2022-08-30T04:21:49.069Z,13.01
2022-08-30T04:24:15.632Z,13.02
2022-08-30T04:26:42.100Z,13.00
2022-08-30T04:29:08.736Z,13.00
2022-08-30T04:31:35.259Z,13.00
2022-08-30T04:34:01.735Z,13.00
2022-08-30T04:36:28.204Z,13.04
2022-08-30T04:38:54.640Z,13.07
2022-08-30T04:41:22.671Z,13.08
2022-08-30T04:43:52.118Z,13.09
2022-08-30T04:46:19.092Z,13.06
2022-08-30T04:48:46.309Z,13.09
2022-08-30T04:51:14.161Z,13.08
2022-08-30T04:53:41.133Z,13.04
2022-08-30T04:56:11.509Z,13.01
2022-08-30T04:58:37.990Z,12.97
2022-08-30T05:01:04.757Z,12.93
2022-08-30T05:03:31.237Z,12.86
2022-08-30T05:05:57.750Z,12.75
2022-08-30T05:08:24.927Z,12.66
2022-08-30T05:10:51.844Z,12.63
2022-08-30T05:13:18.928Z,12.56
2022-08-30T05:15:45.452Z,12.55
2022-08-30T05:18:14.049Z,12.53
2022-08-30T05:20:41.147Z,12.61
2022-08-30T05:23:07.624Z,12.53
2022-08-30T05:25:34.870Z,12.53
2022-08-30T05:28:01.346Z,12.56
2022-08-30T05:30:28.399Z,12.57
2022-08-30T05:32:54.969Z,12.62
2022-08-30T05:35:25.580Z,12.61
2022-08-30T05:37:52.452Z,12.58
2022-08-30T05:40:18.988Z,12.62
2022-08-30T05:42:46.230Z,12.66
2022-08-30T05:45:13.198Z,12.65
2022-08-30T05:47:39.872Z,12.69
2022-08-30T05:50:09.805Z,12.71
2022-08-30T05:52:36.776Z,12.88
2022-08-30T05:55:04.356Z,12.99
2022-08-30T05:57:37.397Z,13.09
2022-08-30T06:00:07.601Z,13.17
2022-08-30T06:02:34.088Z,13.26
2022-08-30T06:05:01.993Z,13.41
2022-08-30T06:07:28.592Z,13.55
2022-08-30T06:09:55.031Z,13.72
2022-08-30T06:12:21.647Z,13.99
2022-08-30T06:14:48.125Z,14.32
2022-08-30T06:17:15.559Z,14.61
2022-08-30T06:19:42.047Z,14.97
2022-08-30T06:22:08.545Z,15.30
2022-08-30T06:24:56.540Z,15.66
2022-08-30T06:27:22.708Z,15.95
2022-08-30T06:29:51.334Z,16.03
2022-08-30T06:32:17.841Z,16.03
2022-08-30T06:34:44.291Z,16.01
2022-08-30T06:37:10.736Z,16.27
2022-08-30T06:39:37.165Z,16.61
2022-08-30T06:42:03.654Z,16.67
2022-08-30T06:44:30.162Z,16.71
2022-08-30T06:46:56.686Z,16.73
2022-08-30T06:49:23.208Z,16.82
2022-08-30T06:51:49.673Z,16.92
2022-08-30T06:54:18.062Z,17.14
2022-08-30T06:56:57.702Z,17.49
2022-08-30T06:59:25.503Z,17.88
2022-08-30T07:01:53.573Z,17.73
2022-08-30T07:04:20.043Z,17.53
2022-08-30T07:06:46.501Z,17.39
2022-08-30T07:09:12.937Z,17.19
2022-08-30T07:11:41.013Z,17.02
2022-08-30T07:14:07.707Z,17.05
2022-08-30T07:16:34.260Z,17.43
2022-08-30T07:19:01.874Z,17.87
2022-08-30T07:21:36.257Z,18.27
2022-08-30T07:24:02.749Z,18.61
2022-08-30T07:26:31.027Z,18.80
2022-08-30T07:28:57.752Z,18.92
2022-08-30T07:31:24.486Z,18.91
2022-08-30T07:33:51.083Z,18.87
2022-08-30T07:36:18.030Z,19.14
2022-08-30T07:38:45.337Z,19.42
2022-08-30T07:41:16.447Z,19.70
2022-08-30T07:43:42.932Z,20.04
2022-08-30T07:46:09.989Z,20.26
2022-08-30T07:48:36.833Z,20.35
2022-08-30T07:51:05.513Z,20.19
2022-08-30T07:53:32.204Z,19.89
2022-08-30T07:55:59.185Z,20.22
2022-08-30T07:58:25.642Z,20.11
2022-08-30T08:00:52.101Z,20.41
2022-08-30T08:03:19.321Z,20.76
2022-08-30T08:05:46.124Z,20.81
2022-08-30T08:08:13.887Z,21.03
2022-08-30T08:10:40.829Z,21.34
2022-08-30T08:13:07.329Z,21.61
2022-08-30T08:15:33.848Z,21.56
2022-08-30T08:18:01.201Z,21.84
2022-08-30T08:20:27.962Z,21.98
2022-08-30T08:22:54.665Z,21.94
2022-08-30T08:25:21.137Z,21.91
2022-08-30T08:27:48.943Z,22.08
2022-08-30T08:30:15.572Z,22.15
2022-08-30T08:32:42.053Z,22.16
2022-08-30T08:35:08.608Z,22.18
2022-08-30T08:37:35.033Z,22.49
2022-08-30T08:40:01.615Z,22.48
2022-08-30T08:42:48.368Z,22.64
2022-08-30T08:45:16.689Z,23.17
2022-08-30T08:48:13.023Z,23.10
2022-08-30T08:51:02.081Z,22.87
2022-08-30T08:53:51.457Z,22.98
2022-08-30T08:56:18.675Z,23.23
2022-08-30T08:58:46.237Z,23.72
2022-08-30T09:01:13.430Z,24.15
2022-08-30T09:03:39.933Z,24.55
2022-08-30T09:06:20.398Z,24.31
2022-08-30T09:08:46.823Z,23.57
2022-08-30T09:11:16.747Z,23.18
2022-08-30T09:13:43.216Z,23.00
2022-08-30T09:16:09.773Z,23.09
2022-08-30T09:18:45.451Z,23.84
2022-08-30T09:21:12.531Z,24.27
2022-08-30T09:23:46.975Z,24.51
2022-08-30T09:26:13.821Z,24.57
2022-08-30T09:28:44.925Z,24.78
2022-08-30T09:31:18.729Z,25.06
2022-08-30T09:33:55.221Z,25.43
2022-08-30T09:36:42.073Z,25.42
2022-08-30T09:39:17.754Z,25.52
2022-08-30T09:41:45.129Z,25.26
2022-08-30T09:44:16.508Z,25.12
2022-08-30T09:46:53.541Z,26.00
2022-08-30T09:49:30.480Z,26.59
2022-08-30T09:52:15.221Z,26.57
2022-08-30T09:54:47.752Z,26.66
2022-08-30T09:57:34.499Z,26.02
2022-08-30T10:00:21.530Z,26.40
2022-08-30T10:03:14.370Z,27.02
2022-08-30T10:05:45.716Z,26.92
2022-08-30T10:08:20.522Z,26.50
2022-08-30T10:10:52.239Z,27.31
2022-08-30T10:13:28.728Z,28.31
2022-08-30T10:15:59.922Z,28.76
2022-08-30T10:18:30.846Z,29.99
2022-08-30T10:20:57.300Z,31.55
2022-08-30T10:23:34.268Z,31.55
2022-08-30T10:26:03.817Z,29.31
2022-08-30T10:28:30.213Z,29.38
2022-08-30T10:30:57.770Z,29.35
2022-08-30T10:33:31.790Z,29.71
2022-08-30T10:35:58.736Z,29.96
2022-08-30T10:38:33.001Z,30.88
2022-08-30T10:41:20.316Z,32.00
2022-08-30T10:43:53.553Z,32.79
2022-08-30T10:46:24.485Z,31.31
2022-08-30T10:48:50.891Z,31.10
2022-08-30T10:51:21.642Z,32.03
2022-08-30T10:54:21.891Z,31.66
2022-08-30T10:56:49.549Z,32.98
2022-08-30T10:59:19.218Z,33.89
2022-08-30T11:01:54.795Z,35.14
2022-08-30T11:04:21.198Z,36.00
2022-08-30T11:07:00.386Z,36.58
2022-08-30T11:09:29.873Z,37.70
2022-08-30T11:11:56.289Z,37.07
2022-08-30T11:14:25.379Z,35.07
2022-08-30T11:16:52.674Z,33.82
2022-08-30T11:19:32.156Z,32.67
2022-08-30T11:22:22.172Z,31.99
2022-08-30T11:24:59.586Z,32.75
2022-08-30T11:27:41.391Z,32.77
2022-08-30T11:30:27.006Z,33.64
2022-08-30T11:32:57.339Z,35.25
2022-08-30T11:38:29.919Z,35.87
2022-08-30T11:40:56.334Z,34.87
2022-08-30T11:43:40.060Z,33.93
2022-08-30T11:46:15.801Z,33.22
2022-08-30T11:48:53.564Z,32.72
2022-08-30T11:51:40.985Z,31.67
2022-08-30T11:54:22.123Z,30.68
2022-08-30T11:56:54.584Z,31.85
2022-08-30T11:59:35.712Z,32.43
2022-08-30T12:02:02.293Z,34.80
2022-08-30T12:04:44.119Z,35.12
2022-08-30T12:07:10.999Z,34.44
2022-08-30T12:09:37.781Z,33.59
2022-08-30T12:12:08.298Z,32.83
2022-08-30T12:14:49.014Z,32.34
2022-08-30T12:17:42.960Z,34.18
2022-08-30T12:20:29.529Z,35.66
2022-08-30T12:22:56.669Z,36.93
2022-08-30T12:25:33.724Z,35.21
2022-08-30T12:28:15.633Z,33.82
2022-08-30T12:30:42.469Z,31.00
2022-08-30T12:33:14.251Z,29.49
2022-08-30T12:35:41.883Z,28.75
2022-08-30T12:38:13.138Z,27.68
2022-08-30T12:40:41.318Z,27.19
2022-08-30T12:43:17.397Z,26.99
2022-08-30T12:45:45.041Z,26.67
2022-08-30T12:48:17.593Z,26.58
2022-08-30T12:50:51.629Z,27.07
2022-08-30T12:53:28.745Z,29.83
2022-08-30T12:55:59.345Z,30.97
2022-08-30T12:58:34.390Z,30.54
2022-08-30T13:01:19.465Z,29.75
2022-08-30T13:04:13.652Z,29.43
2022-08-30T13:06:43.807Z,28.74
2022-08-30T13:09:22.302Z,27.93
2022-08-30T13:11:49.040Z,27.44
2022-08-30T13:14:20.252Z,27.39
2022-08-30T13:16:47.299Z,27.42
2022-08-30T13:19:32.007Z,27.19
2022-08-30T13:21:58.840Z,28.08
2022-08-30T13:24:25.819Z,27.99
2022-08-30T13:26:53.321Z,27.77
2022-08-30T13:29:21.535Z,27.60
2022-08-30T13:31:49.544Z,27.65
2022-08-30T13:34:18.991Z,27.31
2022-08-30T13:36:50.390Z,26.75
2022-08-30T13:39:17.139Z,26.37
2022-08-30T13:41:48.201Z,25.96
2022-08-30T13:44:15.876Z,25.92
2022-08-30T13:46:43.470Z,25.78
2022-08-30T13:52:19.432Z,26.13
2022-08-30T13:54:46.405Z,26.30
2022-08-30T13:57:16.574Z,26.26
2022-08-30T13:59:43.068Z,26.43
2022-08-30T14:02:16.394Z,26.54
2022-08-30T14:04:42.958Z,26.37
2022-08-30T14:07:14.105Z,25.96
2022-08-30T14:09:46.565Z,25.62
2022-08-30T14:12:13.009Z,25.47
2022-08-30T14:14:42.974Z,25.61
2022-08-30T14:17:10.763Z,25.62
2022-08-30T14:19:39.043Z,25.77
2022-08-30T14:22:05.491Z,25.79
2022-08-30T14:24:32.405Z,26.03
2022-08-30T14:27:00.036Z,25.88
2022-08-30T14:29:29.761Z,25.66
2022-08-30T14:31:56.606Z,25.61
2022-08-30T14:34:25.103Z,25.35
2022-08-30T14:36:51.556Z,25.26
2022-08-30T14:39:21.289Z,24.94
2022-08-30T14:41:48.677Z,24.90
2022-08-30T14:44:15.778Z,24.94
2022-08-30T14:46:42.660Z,24.89
2022-08-30T14:49:11.131Z,25.08
2022-08-30T14:51:37.868Z,25.12
2022-08-30T14:54:04.780Z,25.10
2022-08-30T14:56:31.415Z,24.96
2022-08-30T14:59:00.635Z,24.97
2022-08-30T15:01:27.782Z,24.89
2022-08-30T15:03:54.559Z,24.55
2022-08-30T15:06:22.143Z,24.41
2022-08-30T15:08:48.657Z,24.67
2022-08-30T15:11:16.886Z,24.66
2022-08-30T15:13:46.314Z,24.62
2022-08-30T15:16:23.407Z,24.61
2022-08-30T15:18:50.368Z,24.51
2022-08-30T15:21:46.245Z,24.19
2022-08-30T15:24:13.833Z,24.02
2022-08-30T15:26:44.086Z,24.23
2022-08-30T15:29:11.327Z,24.31
2022-08-30T15:31:38.609Z,24.97
2022-08-30T15:34:05.130Z,24.82
2022-08-30T15:36:33.129Z,24.63
2022-08-30T15:39:00.627Z,24.59
2022-08-30T15:41:27.672Z,24.79
2022-08-30T15:43:56.332Z,24.17
2022-08-30T15:46:29.445Z,23.98
2022-08-30T15:48:58.406Z,24.05
2022-08-30T15:51:25.060Z,23.94
2022-08-30T15:53:52.087Z,23.93
2022-08-30T15:56:18.978Z,23.75
2022-08-30T15:58:45.664Z,23.64
2022-08-30T16:01:15.175Z,23.41
2022-08-30T16:03:41.737Z,23.42
2022-08-30T16:06:15.136Z,23.46
2022-08-30T16:08:43.076Z,23.39
2022-08-30T16:11:13.582Z,23.30
2022-08-30T16:13:42.195Z,23.19
2022-08-30T16:16:09.007Z,23.16
2022-08-30T16:18:36.160Z,23.05
2022-08-30T16:21:04.151Z,22.96
2022-08-30T16:23:30.615Z,22.86
2022-08-30T16:26:04.270Z,22.71
2022-08-30T16:28:31.114Z,22.69
2022-08-30T16:30:58.238Z,22.65
2022-08-30T16:33:24.769Z,22.63
2022-08-30T16:35:52.002Z,22.62
2022-08-30T16:38:18.608Z,22.59
2022-08-30T16:40:45.152Z,22.54
2022-08-30T16:43:12.608Z,22.57
2022-08-30T16:45:40.058Z,22.49
2022-08-30T16:48:06.775Z,22.46
2022-08-30T16:50:37.570Z,22.35
2022-08-30T16:53:04.586Z,22.21
2022-08-30T16:55:37.585Z,22.13
2022-08-30T16:58:04.736Z,22.04
2022-08-30T17:00:32.290Z,21.99
2022-08-30T17:02:58.982Z,22.03
2022-08-30T17:05:25.539Z,21.97
2022-08-30T17:07:51.975Z,21.91
2022-08-30T17:10:23.101Z,21.90
2022-08-30T17:12:50.002Z,21.90
2022-08-30T17:15:16.695Z,21.90
2022-08-30T17:17:43.407Z,21.74
2022-08-30T17:20:10.096Z,21.69
2022-08-30T17:22:36.587Z,21.58
2022-08-30T17:25:03.086Z,21.50
2022-08-30T17:27:29.523Z,21.39
2022-08-30T17:29:56.009Z,21.26
2022-08-30T17:32:22.689Z,21.22
2022-08-30T17:34:51.115Z,21.21
2022-08-30T17:37:20.336Z,21.15
2022-08-30T17:39:49.892Z,21.02
2022-08-30T17:42:16.386Z,20.91
2022-08-30T17:44:43.074Z,20.80
2022-08-30T17:47:10.298Z,20.70
2022-08-30T17:49:36.769Z,20.55
2022-08-30T17:52:03.968Z,20.43
2022-08-30T17:54:31.820Z,20.33
2022-08-30T17:56:58.436Z,20.27
2022-08-30T17:59:25.813Z,20.19
2022-08-30T18:01:52.497Z,20.15
2022-08-30T18:04:19.597Z,20.06
2022-08-30T18:06:46.488Z,19.96
2022-08-30T18:09:13.217Z,19.91
2022-08-30T18:11:39.810Z,19.90
2022-08-30T18:14:06.609Z,19.83
2022-08-30T18:16:38.236Z,19.67
2022-08-30T18:19:09.593Z,19.58
2022-08-30T18:21:36.588Z,19.49
2022-08-30T18:24:03.262Z,19.51
2022-08-30T18:26:30.599Z,19.38
2022-08-30T18:28:57.038Z,19.28
2022-08-30T18:31:23.459Z,19.25
2022-08-30T18:33:49.952Z,19.13
2022-08-30T18:36:16.417Z,19.04
2022-08-30T18:38:44.491Z,18.93
2022-08-30T18:41:13.795Z,18.80
2022-08-30T18:43:40.402Z,18.71
2022-08-30T18:46:09.351Z,18.67
2022-08-30T18:48:36.295Z,18.76
2022-08-30T18:51:02.757Z,18.71
2022-08-30T18:53:29.505Z,18.62
2022-08-30T18:55:56.253Z,18.54
2022-08-30T18:58:22.682Z,18.45
2022-08-30T19:00:49.320Z,18.40
2022-08-30T19:03:18.323Z,18.33
2022-08-30T19:05:45.463Z,18.29
2022-08-30T19:08:11.999Z,18.27
2022-08-30T19:10:38.978Z,18.38
2022-08-30T19:13:06.123Z,18.40
2022-08-30T19:15:34.269Z,18.38
2022-08-30T19:18:01.739Z,18.37
2022-08-30T19:20:28.250Z,18.31
2022-08-30T19:23:23.052Z,18.29
2022-08-30T19:25:41.939Z,18.23
2022-08-30T19:28:08.695Z,18.23
2022-08-30T19:30:35.522Z,18.19
2022-08-30T19:33:02.125Z,18.10
2022-08-30T19:35:30.166Z,18.14
2022-08-30T19:37:56.879Z,18.09
2022-08-30T19:40:23.388Z,18.01
2022-08-30T19:42:52.013Z,17.91
2022-08-30T19:45:21.486Z,17.82
2022-08-30T19:47:48.837Z,17.74
2022-08-30T19:50:15.871Z,17.69
2022-08-30T19:52:42.362Z,17.66
2022-08-30T19:55:09.189Z,17.58
2022-08-30T19:57:35.827Z,17.50
2022-08-30T20:00:02.413Z,17.46
2022-08-30T20:02:28.921Z,17.34
2022-08-30T20:04:55.599Z,17.27
2022-08-30T20:07:26.202Z,17.17
2022-08-30T20:09:54.118Z,17.09
2022-08-30T20:12:20.557Z,17.04
2022-08-30T20:14:47.163Z,17.02
2022-08-30T20:17:14.490Z,16.98
2022-08-30T20:19:41.727Z,16.96
2022-08-30T20:22:08.449Z,16.92
2022-08-30T20:27:03.700Z,16.93
2022-08-30T20:29:30.292Z,16.88
2022-08-30T20:31:57.058Z,16.78
2022-08-30T20:34:27.478Z,16.71
2022-08-30T20:36:54.834Z,16.65
2022-08-30T20:39:21.862Z,16.62
2022-08-30T20:41:48.964Z,16.61
2022-08-30T20:44:16.377Z,16.54
2022-08-30T20:46:43.806Z,16.55
2022-08-30T20:49:10.438Z,16.47
2022-08-30T20:51:36.974Z,16.45
2022-08-30T20:54:06.207Z,16.43
2022-08-30T20:56:34.327Z,16.40
2022-08-30T20:59:02.575Z,16.40
2022-08-30T21:01:30.630Z,16.37
2022-08-30T21:03:57.140Z,16.34
2022-08-30T21:06:23.806Z,16.39
2022-08-30T21:08:50.238Z,16.42
2022-08-30T21:11:16.695Z,16.41
2022-08-30T21:13:43.350Z,16.42
2022-08-30T21:16:09.790Z,16.42
2022-08-30T21:18:38.939Z,16.46
2022-08-30T21:21:13.092Z,16.54
2022-08-30T21:23:39.601Z,16.53
2022-08-30T21:26:06.693Z,16.58
2022-08-30T21:28:33.370Z,16.56
2022-08-30T21:31:10.408Z,16.53
2022-08-30T21:33:37.034Z,16.49
2022-08-30T21:36:22.793Z,16.45
2022-08-30T21:38:49.205Z,16.39
2022-08-30T21:41:15.649Z,16.39
2022-08-30T21:43:42.100Z,16.37
2022-08-30T21:46:09.528Z,16.34
2022-08-30T21:48:37.371Z,16.34
2022-08-30T21:51:07.911Z,16.30
2022-08-30T21:53:34.556Z,16.27
2022-08-30T21:56:07.868Z,16.23
2022-08-30T21:58:39.616Z,16.21
2022-08-30T22:01:25.833Z,16.21
2022-08-30T22:03:53.374Z,16.16
2022-08-30T22:06:19.855Z,16.10
2022-08-30T22:08:47.138Z,16.03
2022-08-30T22:11:17.994Z,16.01
2022-08-30T22:13:45.267Z,16.01
2022-08-30T22:16:14.888Z,16.06
2022-08-30T22:18:41.379Z,16.02
2022-08-30T22:21:08.322Z,15.94
2022-08-30T22:23:34.851Z,15.90
2022-08-30T22:26:01.814Z,15.88
2022-08-30T22:28:28.293Z,15.86
2022-08-30T22:30:54.732Z,15.84
2022-08-30T22:33:21.173Z,15.82
2022-08-30T22:35:47.615Z,15.81
2022-08-30T22:38:14.628Z,15.78
2022-08-30T22:40:45.468Z,15.68
2022-08-30T22:43:12.422Z,15.61
2022-08-30T22:45:38.947Z,15.56
2022-08-30T22:48:05.521Z,15.57
2022-08-30T22:50:31.942Z,15.54
2022-08-30T22:52:58.674Z,15.52
2022-08-30T22:55:25.086Z,15.54
2022-08-30T22:57:51.974Z,15.56
2022-08-30T23:00:20.317Z,15.51
2022-08-30T23:02:48.176Z,15.47
2022-08-30T23:05:15.535Z,15.42
2022-08-30T23:07:42.186Z,15.41
2022-08-30T23:10:09.164Z,15.38
2022-08-30T23:12:38.792Z,15.38
2022-08-30T23:15:06.658Z,15.36
2022-08-30T23:17:39.621Z,15.36
2022-08-30T23:20:06.579Z,15.33
2022-08-30T23:22:33.034Z,15.32
2022-08-30T23:25:18.094Z,15.33
2022-08-30T23:28:03.741Z,15.31
2022-08-30T23:30:49.074Z,15.28
2022-08-30T23:33:34.421Z,15.24
2022-08-30T23:36:25.282Z,15.21
2022-08-30T23:39:10.476Z,15.22
2022-08-30T23:41:55.739Z,15.20
2022-08-30T23:44:40.874Z,15.07
2022-08-30T23:47:25.975Z,14.97
2022-08-30T23:50:11.082Z,14.92
2022-08-30T23:52:56.237Z,14.89
2022-08-30T23:55:41.570Z,14.87
2022-08-30T23:58:26.631Z,14.82
